createdAt,value
2023-04-14T00:00:02.340Z,6.03
2023-04-14T00:02:39.978Z,6.60
2023-04-14T00:05:08.599Z,6.90
2023-04-14T00:07:36.126Z,9.20
2023-04-14T00:10:03.595Z,7.77
2023-04-14T00:12:31.404Z,7.73
2023-04-14T00:14:58.749Z,8.10
2023-04-14T00:17:26.114Z,8.67
2023-04-14T00:19:53.890Z,7.77
2023-04-14T00:22:22.303Z,7.43
2023-04-14T00:24:50.946Z,7.75
2023-04-14T00:27:18.561Z,6.78
2023-04-14T00:29:45.835Z,6.80
2023-04-14T00:32:13.098Z,6.97
2023-04-14T00:34:40.690Z,8.53
2023-04-14T00:37:08.146Z,7.37
2023-04-14T00:39:35.579Z,6.60
2023-04-14T00:42:03.603Z,6.07
2023-04-14T00:44:30.967Z,6.97
2023-04-14T00:46:59.509Z,7.30
2023-04-14T00:49:27.260Z,16.65
2023-04-14T00:51:56.373Z,9.07
2023-04-14T00:54:25.133Z,6.97
2023-04-14T00:59:22.424Z,8.98
2023-04-14T01:01:49.830Z,10.60
2023-04-14T01:04:20.511Z,6.73
2023-04-14T01:06:48.077Z,6.03
2023-04-14T01:09:16.641Z,4.70
2023-04-14T01:12:07.476Z,5.28
2023-04-14T01:15:08.984Z,5.27
2023-04-14T01:17:54.663Z,5.10
2023-04-14T01:20:50.290Z,5.00
2023-04-14T01:23:30.114Z,5.33
2023-04-14T01:26:09.772Z,5.33
2023-04-14T01:29:01.455Z,5.40
2023-04-14T01:31:31.524Z,5.17
2023-04-14T01:34:22.582Z,5.47
2023-04-14T01:37:06.965Z,5.67
2023-04-14T01:39:43.290Z,5.50
2023-04-14T01:42:15.471Z,5.23
2023-04-14T01:44:44.385Z,5.60
2023-04-14T01:47:15.870Z,5.90
2023-04-14T01:49:46.256Z,4.77
2023-04-14T01:52:16.534Z,5.43
2023-04-14T01:54:48.376Z,6.03
2023-04-14T01:57:19.509Z,5.67
2023-04-14T01:59:52.207Z,5.70
2023-04-14T02:02:21.565Z,6.20
2023-04-14T02:04:51.190Z,4.97
2023-04-14T02:09:51.024Z,5.50
2023-04-14T02:12:20.433Z,5.18
2023-04-14T02:14:51.786Z,4.77
2023-04-14T02:17:21.865Z,5.80
2023-04-14T02:22:17.225Z,5.87
2023-04-14T02:24:44.638Z,6.10
2023-04-14T02:27:17.930Z,5.93
2023-04-14T02:29:50.867Z,5.47
2023-04-14T02:32:25.030Z,4.70
2023-04-14T02:35:13.883Z,4.60
2023-04-14T02:37:47.795Z,4.67
2023-04-14T02:40:25.750Z,4.87
2023-04-14T02:43:00.569Z,5.97
2023-04-14T02:45:30.770Z,5.03
2023-04-14T02:48:03.142Z,4.67
2023-04-14T02:50:33.427Z,5.97
2023-04-14T02:53:03.449Z,5.43
2023-04-14T02:55:31.900Z,7.53
2023-04-14T02:58:00.321Z,5.90
2023-04-14T03:00:29.212Z,5.77
2023-04-14T03:02:58.798Z,6.17
2023-04-14T03:05:26.783Z,6.87
2023-04-14T03:07:56.221Z,5.22
2023-04-14T03:10:25.302Z,6.70
2023-04-14T03:12:54.931Z,5.60
2023-04-14T03:15:26.095Z,5.77
2023-04-14T03:17:57.429Z,4.83
2023-04-14T03:20:26.613Z,4.63
2023-04-14T03:22:58.505Z,5.23
2023-04-14T03:25:33.211Z,5.47
2023-04-14T03:28:04.108Z,5.60
2023-04-14T03:30:34.901Z,5.17
2023-04-14T03:33:06.714Z,4.57
2023-04-14T03:35:36.965Z,5.30
2023-04-14T03:38:11.408Z,4.23
2023-04-14T03:40:48.372Z,5.17
2023-04-14T03:43:22.798Z,4.20
2023-04-14T03:45:52.978Z,5.00
2023-04-14T03:48:26.419Z,4.70
2023-04-14T03:50:57.873Z,5.33
2023-04-14T03:53:26.512Z,5.00
2023-04-14T03:55:59.412Z,5.17
2023-04-14T03:58:29.644Z,6.27
2023-04-14T04:00:58.253Z,5.50
2023-04-14T04:03:27.390Z,4.95
2023-04-14T04:05:56.137Z,6.97
2023-04-14T04:08:24.767Z,6.47
2023-04-14T04:10:55.132Z,5.72
2023-04-14T04:13:25.519Z,5.10
2023-04-14T04:15:55.389Z,5.43
2023-04-14T04:18:24.324Z,6.00
2023-04-14T04:20:53.489Z,5.12
2023-04-14T04:23:24.689Z,5.60
2023-04-14T04:25:53.651Z,5.63
2023-04-14T04:28:21.745Z,5.30
2023-04-14T04:30:51.726Z,4.90
2023-04-14T04:33:21.596Z,4.83
2023-04-14T04:35:50.961Z,5.63
2023-04-14T04:38:20.851Z,5.50
2023-04-14T04:43:19.313Z,4.60
2023-04-14T04:46:02.617Z,4.57
2023-04-14T04:48:31.040Z,5.50
2023-04-14T04:50:58.548Z,4.43
2023-04-14T04:53:26.667Z,5.27
2023-04-14T04:55:56.144Z,5.20
2023-04-14T04:58:23.554Z,5.10
2023-04-14T05:00:50.782Z,4.63
2023-04-14T05:03:18.431Z,4.67
2023-04-14T05:05:45.723Z,4.33
2023-04-14T05:08:15.033Z,3.90
2023-04-14T05:10:44.273Z,5.37
2023-04-14T05:13:12.251Z,4.72
2023-04-14T05:15:39.771Z,7.80
2023-04-14T05:18:08.031Z,6.73
2023-04-14T05:20:35.430Z,6.43
2023-04-14T05:23:07.044Z,6.27
2023-04-14T05:25:36.548Z,6.60
2023-04-14T05:28:04.378Z,6.33
2023-04-14T05:30:31.631Z,4.97
2023-04-14T05:32:59.392Z,5.00
2023-04-14T05:35:26.935Z,5.40
2023-04-14T05:37:54.488Z,4.90
2023-04-14T05:40:22.788Z,5.77
2023-04-14T05:42:50.754Z,5.83
2023-04-14T05:45:18.290Z,7.57
2023-04-14T05:47:47.940Z,6.87
2023-04-14T05:50:16.788Z,5.17
2023-04-14T05:52:44.315Z,4.57
2023-04-14T05:55:12.447Z,3.63
2023-04-14T05:57:39.810Z,4.57
2023-04-14T06:00:08.376Z,3.50
2023-04-14T06:02:41.339Z,3.47
2023-04-14T06:05:09.554Z,3.43
2023-04-14T06:07:37.845Z,3.50
2023-04-14T06:10:06.793Z,3.08
2023-04-14T06:12:35.154Z,3.15
2023-04-14T06:15:03.742Z,3.70
2023-04-14T06:20:11.276Z,3.28
2023-04-14T06:22:40.652Z,3.27
2023-04-14T06:25:08.526Z,3.10
2023-04-14T06:27:36.926Z,3.10
2023-04-14T06:30:06.326Z,3.78
2023-04-14T06:32:34.706Z,3.73
2023-04-14T06:35:05.200Z,3.22
2023-04-14T06:37:33.080Z,3.30
2023-04-14T06:40:01.827Z,3.08
2023-04-14T06:42:29.343Z,3.97
2023-04-14T06:44:56.700Z,3.57
2023-04-14T06:47:25.913Z,3.30
2023-04-14T06:49:54.580Z,3.30
2023-04-14T06:52:22.572Z,3.00
2023-04-14T06:54:51.501Z,3.00
2023-04-14T06:57:19.101Z,3.97
2023-04-14T06:59:47.900Z,4.90
2023-04-14T07:02:16.140Z,3.73
2023-04-14T07:04:43.878Z,3.27
2023-04-14T07:07:12.124Z,3.57
2023-04-14T07:12:17.795Z,3.00
2023-04-14T07:14:52.282Z,2.87
2023-04-14T07:17:20.358Z,3.30
2023-04-14T07:19:48.000Z,2.55
2023-04-14T07:22:15.320Z,3.23
2023-04-14T07:24:42.929Z,2.90
2023-04-14T07:27:15.802Z,3.07
2023-04-14T07:29:43.371Z,2.87
2023-04-14T07:32:13.523Z,2.80
2023-04-14T07:34:44.072Z,3.40
2023-04-14T07:37:12.057Z,3.03
2023-04-14T07:39:39.934Z,3.03
2023-04-14T07:42:07.516Z,3.13
2023-04-14T07:44:36.185Z,3.53
2023-04-14T07:47:03.664Z,3.00
2023-04-14T07:49:31.770Z,2.70
2023-04-14T07:52:00.300Z,3.33
2023-04-14T07:54:29.382Z,3.30
2023-04-14T07:56:57.906Z,2.83
2023-04-14T07:59:25.570Z,2.92
2023-04-14T08:01:53.016Z,3.40
2023-04-14T08:04:20.829Z,2.87
2023-04-14T08:06:48.255Z,3.13
2023-04-14T08:09:15.824Z,3.27
2023-04-14T08:11:43.768Z,3.13
2023-04-14T08:14:11.927Z,3.10
2023-04-14T08:16:40.127Z,4.93
2023-04-14T08:19:09.487Z,4.72
2023-04-14T08:24:04.457Z,3.30
2023-04-14T08:26:33.294Z,2.57
2023-04-14T08:29:02.312Z,3.17
2023-04-14T08:31:30.205Z,3.20
2023-04-14T08:33:57.912Z,3.33
2023-04-14T08:36:26.328Z,3.70
2023-04-14T08:38:54.850Z,3.10
2023-04-14T08:41:23.674Z,3.20
2023-04-14T08:43:52.018Z,2.87
2023-04-14T08:46:20.844Z,3.00
2023-04-14T08:48:53.620Z,3.45
2023-04-14T08:51:30.475Z,3.60
2023-04-14T08:54:00.558Z,3.45
2023-04-14T08:56:33.773Z,2.72
2023-04-14T08:59:02.209Z,3.90
2023-04-14T09:01:30.352Z,3.58
2023-04-14T09:03:58.793Z,3.00
2023-04-14T09:11:23.017Z,3.05
2023-04-14T09:13:51.017Z,3.55
2023-04-14T09:16:19.588Z,3.47
2023-04-14T09:18:47.531Z,4.32
2023-04-14T09:21:49.329Z,3.37
2023-04-14T09:24:06.349Z,4.18
2023-04-14T09:26:34.120Z,3.03
2023-04-14T09:29:01.607Z,3.03
2023-04-14T09:31:30.029Z,3.28
2023-04-14T09:33:58.367Z,3.10
2023-04-14T09:36:29.194Z,3.33
2023-04-14T09:38:57.462Z,3.80
2023-04-14T09:41:28.185Z,3.87
2023-04-14T09:43:55.888Z,4.50
2023-04-14T09:46:23.355Z,4.03
2023-04-14T09:48:52.513Z,3.63
2023-04-14T09:53:53.249Z,3.50
2023-04-14T09:56:26.243Z,3.58
2023-04-14T09:59:02.178Z,4.40
2023-04-14T10:01:32.736Z,2.97
2023-04-14T10:04:03.013Z,3.83
2023-04-14T10:06:33.938Z,3.33
2023-04-14T10:09:02.144Z,3.03
2023-04-14T10:11:32.987Z,4.75
2023-04-14T10:14:06.453Z,2.72
2023-04-14T10:16:35.134Z,2.70
2023-04-14T10:19:03.880Z,3.53
2023-04-14T10:21:31.847Z,3.42
2023-04-14T10:24:00.984Z,4.28
2023-04-14T10:26:30.176Z,3.78
2023-04-14T10:28:58.028Z,2.50
2023-04-14T10:31:27.833Z,3.42
2023-04-14T10:33:55.701Z,2.72
2023-04-14T10:36:25.686Z,2.53
2023-04-14T10:39:05.559Z,2.83
2023-04-14T10:41:55.180Z,3.03
2023-04-14T10:44:23.846Z,2.90
2023-04-14T10:46:52.508Z,2.97
2023-04-14T10:49:25.366Z,3.97
2023-04-14T10:51:53.042Z,3.67
2023-04-14T10:54:20.461Z,2.72
2023-04-14T10:57:11.353Z,4.47
2023-04-14T10:59:43.567Z,3.95
2023-04-14T11:02:28.635Z,3.30
2023-04-14T11:05:11.787Z,3.27
2023-04-14T11:07:47.348Z,3.80
2023-04-14T11:10:23.788Z,4.50
2023-04-14T11:13:06.108Z,3.37
2023-04-14T11:15:52.008Z,2.40
2023-04-14T11:18:33.488Z,2.33
2023-04-14T11:21:08.479Z,3.12
2023-04-14T11:23:36.998Z,2.22
2023-04-14T11:26:13.578Z,2.45
2023-04-14T11:28:43.082Z,1.62
2023-04-14T11:31:13.091Z,2.67
2023-04-14T11:33:42.319Z,2.15
2023-04-14T11:36:12.649Z,2.20
2023-04-14T11:38:42.996Z,1.33
2023-04-14T11:41:11.018Z,1.30
2023-04-14T11:43:38.871Z,1.57
2023-04-14T11:46:08.649Z,1.30
2023-04-14T11:48:38.137Z,1.60
2023-04-14T11:53:34.785Z,0.95
2023-04-14T11:56:02.953Z,1.10
2023-04-14T11:58:30.587Z,1.08
2023-04-14T12:00:58.044Z,1.23
2023-04-14T12:03:28.893Z,1.40
2023-04-14T12:06:00.059Z,0.90
2023-04-14T12:08:33.122Z,0.50
2023-04-14T12:11:17.672Z,0.60
2023-04-14T12:13:47.381Z,0.83
2023-04-14T12:16:17.106Z,0.60
2023-04-14T12:18:45.202Z,0.60
2023-04-14T12:21:18.679Z,0.80
2023-04-14T12:23:50.789Z,0.50
2023-04-14T12:26:19.873Z,0.77
2023-04-14T12:28:56.091Z,0.50
2023-04-14T12:31:30.365Z,0.63
2023-04-14T12:34:04.302Z,0.47
2023-04-14T12:36:47.959Z,0.63
2023-04-14T12:39:17.191Z,0.60
2023-04-14T12:41:45.011Z,0.70
2023-04-14T12:44:20.930Z,0.60
2023-04-14T12:46:50.620Z,0.60
2023-04-14T12:49:36.482Z,3.93
2023-04-14T12:52:05.560Z,0.60
2023-04-14T12:54:55.293Z,0.60
2023-04-14T12:57:23.020Z,4.40
2023-04-14T12:59:50.892Z,1.37
2023-04-14T13:02:22.587Z,0.70
2023-04-14T13:04:50.864Z,0.90
2023-04-14T13:07:18.848Z,1.00
2023-04-14T13:09:46.157Z,0.90
2023-04-14T13:12:13.882Z,0.60
2023-04-14T13:14:41.552Z,0.67
2023-04-14T13:17:08.995Z,1.20
2023-04-14T13:19:36.850Z,1.20
2023-04-14T13:22:04.191Z,1.53
2023-04-14T13:24:31.636Z,1.03
2023-04-14T13:26:59.390Z,1.57
2023-04-14T13:29:26.796Z,1.23
2023-04-14T13:31:54.196Z,1.17
2023-04-14T13:34:21.918Z,0.77
2023-04-14T13:36:49.493Z,0.50
2023-04-14T13:39:17.151Z,1.40
2023-04-14T13:41:44.764Z,0.97
2023-04-14T13:44:12.969Z,0.60
2023-04-14T13:46:41.433Z,1.08
2023-04-14T13:49:09.495Z,0.75
2023-04-14T13:51:36.894Z,0.80
2023-04-14T13:54:04.333Z,0.90
2023-04-14T13:56:31.985Z,1.33
2023-04-14T13:58:59.497Z,1.30
2023-04-14T14:01:27.635Z,1.40
2023-04-14T14:03:55.824Z,0.82
2023-04-14T14:06:23.385Z,0.50
2023-04-14T14:09:06.404Z,0.90
2023-04-14T14:11:34.994Z,0.60
2023-04-14T14:14:02.562Z,1.00
2023-04-14T14:16:36.675Z,1.27
2023-04-14T14:19:07.460Z,0.80
2023-04-14T14:21:34.878Z,0.97
2023-04-14T14:24:02.255Z,0.87
2023-04-14T14:26:30.214Z,1.00
2023-04-14T14:28:57.802Z,0.57
2023-04-14T14:31:25.280Z,0.90
2023-04-14T14:33:52.934Z,1.27
2023-04-14T14:36:20.601Z,1.00
2023-04-14T14:38:47.984Z,0.50
2023-04-14T14:41:15.804Z,0.80
2023-04-14T14:43:43.246Z,1.10
2023-04-14T14:46:10.635Z,0.83
2023-04-14T14:48:38.480Z,2.50
2023-04-14T14:51:06.197Z,0.70
2023-04-14T14:53:33.605Z,1.23
2023-04-14T14:56:01.261Z,0.80
2023-04-14T14:58:28.666Z,0.97
2023-04-14T15:00:56.015Z,1.03
2023-04-14T15:03:24.626Z,0.43
2023-04-14T15:05:52.790Z,0.50
2023-04-14T15:08:20.310Z,0.40
2023-04-14T15:10:48.086Z,6.57
2023-04-14T15:13:15.500Z,1.47
2023-04-14T15:15:42.935Z,1.50
2023-04-14T15:18:11.509Z,1.73
2023-04-14T15:20:39.494Z,1.23
2023-04-14T15:23:07.398Z,3.33
2023-04-14T15:25:35.070Z,0.93
2023-04-14T15:28:02.527Z,0.87
2023-04-14T15:30:29.803Z,1.00
2023-04-14T15:32:58.473Z,0.70
2023-04-14T15:35:26.707Z,3.28
2023-04-14T15:37:54.031Z,2.33
2023-04-14T15:40:22.028Z,1.23
2023-04-14T15:42:49.357Z,0.60
2023-04-14T15:45:16.684Z,0.90
2023-04-14T15:47:46.412Z,1.20
2023-04-14T15:50:18.780Z,3.25
2023-04-14T15:52:51.045Z,0.70
2023-04-14T15:55:18.462Z,2.37
2023-04-14T15:57:46.415Z,1.23
2023-04-14T16:00:14.607Z,0.82
2023-04-14T16:02:42.801Z,1.00
2023-04-14T16:07:39.010Z,1.12
2023-04-14T16:10:07.206Z,0.60
2023-04-14T16:12:35.445Z,1.55
2023-04-14T16:15:03.321Z,0.77
2023-04-14T16:17:31.781Z,3.33
2023-04-14T16:22:27.833Z,1.90
2023-04-14T16:24:55.359Z,1.25
2023-04-14T16:27:23.044Z,2.80
2023-04-14T16:29:50.418Z,2.13
2023-04-14T16:32:18.108Z,1.00
2023-04-14T16:34:45.985Z,3.00
2023-04-14T16:37:13.432Z,3.50
2023-04-14T16:39:41.480Z,2.30
2023-04-14T16:42:09.674Z,2.78
2023-04-14T16:44:37.852Z,2.30
2023-04-14T16:47:05.165Z,0.90
2023-04-14T16:49:33.021Z,0.70
2023-04-14T16:52:01.288Z,0.80
2023-04-14T16:54:28.806Z,0.80
2023-04-14T16:56:56.423Z,1.13
2023-04-14T16:59:23.768Z,0.50
2023-04-14T17:01:51.463Z,0.90
2023-04-14T17:04:19.381Z,0.70
2023-04-14T17:06:47.154Z,2.50
2023-04-14T17:09:14.988Z,1.20
2023-04-14T17:11:42.741Z,0.60
2023-04-14T17:14:10.446Z,19.83
2023-04-14T17:16:38.390Z,30.57
2023-04-14T17:19:06.252Z,13.57
2023-04-14T17:21:33.572Z,15.07
2023-04-14T17:24:01.496Z,24.17
2023-04-14T17:26:29.448Z,40.75
2023-04-14T17:28:56.847Z,32.87
2023-04-14T17:31:24.207Z,9.77
2023-04-14T17:33:51.967Z,9.77
2023-04-14T17:36:19.564Z,6.37
2023-04-14T17:38:47.035Z,10.83
2023-04-14T17:41:14.755Z,11.23
2023-04-14T17:43:42.191Z,9.73
2023-04-14T17:46:10.418Z,9.30
2023-04-14T17:48:38.523Z,9.13
2023-04-14T17:51:06.370Z,30.37
2023-04-14T17:53:33.886Z,19.37
2023-04-14T17:56:01.619Z,21.33
2023-04-14T17:58:29.036Z,20.20
2023-04-14T18:00:56.493Z,24.63
2023-04-14T18:03:24.176Z,24.03
2023-04-14T18:05:51.785Z,15.00
2023-04-14T18:08:19.073Z,14.90
2023-04-14T18:10:46.728Z,15.13
2023-04-14T18:13:14.291Z,15.40
2023-04-14T18:15:42.236Z,13.23
2023-04-14T18:18:10.346Z,23.83
2023-04-14T18:20:37.748Z,14.83
2023-04-14T18:23:05.813Z,9.40
2023-04-14T18:28:04.262Z,4.20
2023-04-14T18:30:31.804Z,4.70
2023-04-14T18:33:01.286Z,42.20
2023-04-14T18:37:56.824Z,28.70
2023-04-14T18:40:27.552Z,15.50
2023-04-14T18:42:57.463Z,26.10
2023-04-14T18:45:25.148Z,21.30
2023-04-14T18:47:52.436Z,18.37
2023-04-14T18:50:20.735Z,15.50
2023-04-14T18:52:49.480Z,17.25
2023-04-14T18:55:17.043Z,14.87
2023-04-14T18:57:44.363Z,12.20
2023-04-14T19:00:16.907Z,12.97
2023-04-14T19:02:44.368Z,12.20
2023-04-14T19:05:12.249Z,22.43
2023-04-14T19:07:39.652Z,37.10
2023-04-14T19:10:07.618Z,16.00
2023-04-14T19:12:37.974Z,13.05
2023-04-14T19:15:06.831Z,15.43
2023-04-14T19:17:34.660Z,14.13
2023-04-14T19:20:02.485Z,11.83
2023-04-14T19:22:29.926Z,12.07
2023-04-14T19:24:57.393Z,8.00
2023-04-14T19:27:25.323Z,6.83
2023-04-14T19:29:52.755Z,14.63
2023-04-14T19:32:20.177Z,24.10
2023-04-14T19:34:48.401Z,20.23
2023-04-14T19:37:15.835Z,17.53
2023-04-14T19:39:43.350Z,54.47
2023-04-14T19:42:11.002Z,24.27
2023-04-14T19:44:38.416Z,16.73
2023-04-14T19:47:06.273Z,12.30
2023-04-14T19:49:34.328Z,11.52
2023-04-14T19:52:01.944Z,13.93
2023-04-14T19:54:29.645Z,19.77
2023-04-14T19:56:57.428Z,12.63
2023-04-14T19:59:24.752Z,5.53
2023-04-14T20:01:52.308Z,3.90
2023-04-14T20:04:20.917Z,5.27
2023-04-14T20:06:48.568Z,4.15
2023-04-14T20:09:16.103Z,3.50
2023-04-14T20:11:43.837Z,3.33
2023-04-14T20:14:11.560Z,3.50
2023-04-14T20:16:38.990Z,9.83
2023-04-14T20:19:06.731Z,25.77
2023-04-14T20:21:34.917Z,15.77
2023-04-14T20:24:02.424Z,16.10
2023-04-14T20:26:30.219Z,18.17
2023-04-14T20:28:58.340Z,16.30
2023-04-14T20:31:25.828Z,12.43
2023-04-14T20:33:53.697Z,12.03
2023-04-14T20:36:21.695Z,10.97
2023-04-14T20:38:49.052Z,11.10
2023-04-14T20:41:16.875Z,13.00
2023-04-14T20:43:44.205Z,9.93
2023-04-14T20:46:11.769Z,6.87
2023-04-14T20:48:39.627Z,6.33
2023-04-14T20:51:07.450Z,6.90
2023-04-14T20:53:35.356Z,5.40
2023-04-14T20:56:03.366Z,6.93
2023-04-14T20:58:30.774Z,3.83
2023-04-14T21:00:58.686Z,2.87
2023-04-14T21:03:27.604Z,2.90
2023-04-14T21:05:55.293Z,4.32
2023-04-14T21:08:22.640Z,11.17
2023-04-14T21:11:16.353Z,5.17
2023-04-14T21:15:25.373Z,9.97
2023-04-14T21:16:26.183Z,8.43
2023-04-14T21:18:53.552Z,6.60
2023-04-14T21:21:21.624Z,11.27
2023-04-14T21:23:49.279Z,8.05
2023-04-14T21:26:16.934Z,5.60
2023-04-14T21:28:44.271Z,5.50
2023-04-14T21:31:11.953Z,4.73
2023-04-14T21:33:40.129Z,10.77
2023-04-14T21:36:09.709Z,23.07
2023-04-14T21:38:38.641Z,13.13
2023-04-14T21:41:08.058Z,12.15
2023-04-14T21:46:03.743Z,9.53
2023-04-14T21:48:31.463Z,9.23
2023-04-14T21:50:58.683Z,9.07
2023-04-14T21:53:26.530Z,5.63
2023-04-14T21:56:09.249Z,8.07
2023-04-14T21:58:39.755Z,10.17
2023-04-14T22:01:10.543Z,12.05
2023-04-14T22:03:42.213Z,5.10
2023-04-14T22:06:12.523Z,3.47
2023-04-14T22:08:41.120Z,2.83
2023-04-14T22:11:08.650Z,2.93
2023-04-14T22:13:36.171Z,4.00
2023-04-14T22:16:03.964Z,11.77
2023-04-14T22:18:32.107Z,4.90
2023-04-14T22:20:59.433Z,6.93
2023-04-14T22:23:27.734Z,9.60
2023-04-14T22:25:55.039Z,7.10
2023-04-14T22:28:22.409Z,7.07
2023-04-14T22:30:50.078Z,7.40
2023-04-14T22:33:17.485Z,5.27
2023-04-14T22:35:45.101Z,4.93
2023-04-14T22:38:12.849Z,12.00
2023-04-14T22:40:40.252Z,7.07
2023-04-14T22:43:11.032Z,9.77
2023-04-14T22:45:39.423Z,9.57
2023-04-14T22:48:09.025Z,8.57
2023-04-14T22:50:37.138Z,7.80
2023-04-14T22:53:05.871Z,9.82
2023-04-14T22:55:33.486Z,10.80
2023-04-14T22:58:00.900Z,12.23
2023-04-14T23:00:28.856Z,14.37
2023-04-14T23:02:56.331Z,14.57
2023-04-14T23:05:23.712Z,11.30
2023-04-14T23:07:51.667Z,7.47
2023-04-14T23:10:19.416Z,5.70
2023-04-14T23:12:47.050Z,8.70
2023-04-14T23:15:14.692Z,10.90
2023-04-14T23:17:42.102Z,11.53
2023-04-14T23:20:09.719Z,8.87
2023-04-14T23:22:37.708Z,4.60
2023-04-14T23:25:05.456Z,3.97
2023-04-14T23:27:32.764Z,5.83
2023-04-14T23:30:00.729Z,5.80
2023-04-14T23:32:28.076Z,3.70
2023-04-14T23:34:55.777Z,5.17
2023-04-14T23:37:24.142Z,6.03
2023-04-14T23:39:51.505Z,4.97
2023-04-14T23:42:18.823Z,5.70
2023-04-14T23:44:46.700Z,6.33
2023-04-14T23:47:14.292Z,5.47
2023-04-14T23:49:41.570Z,8.03
2023-04-14T23:52:09.395Z,7.40
2023-04-14T23:54:36.805Z,6.40
2023-04-14T23:57:04.405Z,8.17
2023-04-14T23:59:32.084Z,8.70
